createdAt,value
2023-05-22T00:00:07.572Z,13.17
2023-05-22T00:02:38.902Z,11.90
2023-05-22T00:05:07.368Z,13.43
2023-05-22T00:07:35.310Z,11.67
2023-05-22T00:10:02.932Z,12.60
2023-05-22T00:12:30.484Z,13.50
2023-05-22T00:14:58.070Z,13.07
2023-05-22T00:17:26.455Z,11.57
2023-05-22T00:19:55.124Z,12.63
2023-05-22T00:22:23.184Z,13.03
2023-05-22T00:24:50.554Z,12.97
2023-05-22T00:27:17.886Z,13.60
2023-05-22T00:29:46.548Z,13.17
2023-05-22T00:32:14.021Z,12.40
2023-05-22T00:34:41.448Z,12.30
2023-05-22T00:37:09.015Z,12.10
2023-05-22T00:39:36.523Z,13.00
2023-05-22T00:42:04.263Z,12.73
2023-05-22T00:44:31.765Z,12.60
2023-05-22T00:46:59.198Z,12.63
2023-05-22T00:49:26.631Z,12.90
2023-05-22T00:51:54.222Z,12.40
2023-05-22T00:54:22.066Z,12.97
2023-05-22T00:56:50.339Z,13.80
2023-05-22T00:59:18.100Z,12.50
2023-05-22T01:01:45.524Z,12.43
2023-05-22T01:04:13.396Z,12.90
2023-05-22T01:06:41.360Z,12.73
2023-05-22T01:09:09.728Z,12.80
2023-05-22T01:11:59.107Z,13.00
2023-05-22T01:14:39.376Z,12.73
2023-05-22T01:17:34.746Z,13.30
2023-05-22T01:20:22.848Z,12.57
2023-05-22T01:23:23.801Z,12.73
2023-05-22T01:26:03.686Z,12.83
2023-05-22T01:28:53.342Z,13.57
2023-05-22T01:31:26.956Z,13.17
2023-05-22T01:34:00.935Z,13.20
2023-05-22T01:36:34.673Z,13.77
2023-05-22T01:39:06.100Z,12.80
2023-05-22T01:41:34.784Z,12.47
2023-05-22T01:44:02.871Z,12.27
2023-05-22T01:46:31.500Z,12.73
2023-05-22T01:48:59.854Z,12.53
2023-05-22T01:51:48.566Z,13.43
2023-05-22T01:54:20.012Z,12.17
2023-05-22T01:56:57.489Z,12.60
2023-05-22T01:59:38.320Z,12.30
2023-05-22T02:02:09.918Z,11.70
2023-05-22T02:04:45.352Z,13.13
2023-05-22T02:07:17.215Z,12.83
2023-05-22T02:09:46.853Z,12.87
2023-05-22T02:12:14.726Z,12.77
2023-05-22T02:14:44.156Z,13.63
2023-05-22T02:17:12.286Z,13.60
2023-05-22T02:19:39.797Z,12.17
2023-05-22T02:22:09.830Z,11.93
2023-05-22T02:24:37.792Z,12.00
2023-05-22T02:27:05.635Z,12.27
2023-05-22T02:29:33.468Z,12.37
2023-05-22T02:32:01.158Z,12.30
2023-05-22T02:34:29.666Z,12.87
2023-05-22T02:36:59.813Z,12.37
2023-05-22T02:39:27.959Z,12.77
2023-05-22T02:41:55.696Z,12.63
2023-05-22T02:44:23.332Z,12.93
2023-05-22T02:46:51.966Z,12.30
2023-05-22T02:49:19.516Z,13.00
2023-05-22T02:51:47.686Z,12.90
2023-05-22T02:54:16.603Z,12.63
2023-05-22T02:56:44.811Z,13.30
2023-05-22T02:59:12.638Z,13.23
2023-05-22T03:01:40.124Z,13.53
2023-05-22T03:04:07.857Z,13.23
2023-05-22T03:06:37.379Z,13.13
2023-05-22T03:09:05.044Z,13.30
2023-05-22T03:11:32.511Z,13.63
2023-05-22T03:14:00.365Z,12.83
2023-05-22T03:16:28.221Z,13.47
2023-05-22T03:19:10.164Z,13.60
2023-05-22T03:21:38.358Z,14.40
2023-05-22T03:24:06.849Z,13.80
2023-05-22T03:26:34.568Z,14.03
2023-05-22T04:24:27.559Z,14.37
2023-05-22T04:26:55.016Z,13.83
2023-05-22T04:29:22.802Z,12.37
2023-05-22T04:31:54.138Z,13.50
2023-05-22T04:34:21.831Z,13.10
2023-05-22T04:36:49.451Z,13.37
2023-05-22T04:39:19.034Z,13.33
2023-05-22T04:41:46.400Z,12.83
2023-05-22T04:44:14.344Z,13.00
2023-05-22T04:46:42.434Z,14.17
2023-05-22T04:49:10.383Z,13.70
2023-05-22T04:51:37.814Z,12.63
2023-05-22T04:54:06.277Z,13.67
2023-05-22T04:56:36.724Z,14.20
2023-05-22T04:59:08.818Z,12.87
2023-05-22T05:01:37.884Z,12.80
2023-05-22T05:04:06.108Z,12.43
2023-05-22T05:06:34.601Z,13.30
2023-05-22T05:09:03.676Z,12.77
2023-05-22T05:11:31.041Z,13.07
2023-05-22T05:13:58.737Z,12.70
2023-05-22T05:16:26.871Z,12.17
2023-05-22T05:18:55.635Z,13.57
2023-05-22T05:21:23.385Z,12.33
2023-05-22T05:23:51.988Z,11.93
2023-05-22T05:26:21.822Z,11.53
2023-05-22T05:28:49.762Z,12.33
2023-05-22T05:31:19.796Z,11.67
2023-05-22T05:34:06.799Z,11.73
2023-05-22T05:36:52.825Z,13.87
2023-05-22T05:39:22.300Z,11.63
2023-05-22T05:41:51.016Z,11.83
2023-05-22T05:44:19.341Z,11.87
2023-05-22T05:46:47.978Z,12.03
2023-05-22T05:49:19.852Z,11.53
2023-05-22T05:51:48.131Z,11.03
2023-05-22T05:54:17.013Z,10.90
2023-05-22T05:56:45.884Z,11.27
2023-05-22T05:59:14.007Z,11.07
2023-05-22T06:02:01.323Z,11.17
2023-05-22T06:04:33.630Z,10.60
2023-05-22T06:07:01.847Z,10.73
2023-05-22T06:09:36.295Z,11.40
2023-05-22T06:12:14.914Z,11.03
2023-05-22T06:14:45.136Z,10.90
2023-05-22T06:17:13.684Z,11.00
2023-05-22T06:19:42.921Z,9.73
2023-05-22T06:22:11.490Z,11.13
2023-05-22T06:24:41.495Z,10.40
2023-05-22T06:27:14.718Z,10.17
2023-05-22T06:29:42.069Z,10.40
2023-05-22T06:32:09.487Z,10.43
2023-05-22T06:34:40.280Z,9.80
2023-05-22T06:37:07.670Z,9.43
2023-05-22T06:39:40.663Z,10.23
2023-05-22T06:42:14.076Z,9.43
2023-05-22T06:45:13.758Z,10.43
2023-05-22T06:47:56.669Z,9.67
2023-05-22T06:50:25.267Z,9.70
2023-05-22T06:52:53.436Z,10.30
2023-05-22T06:55:20.995Z,9.47
2023-05-22T06:58:02.179Z,10.23
2023-05-22T07:00:30.126Z,9.37
2023-05-22T07:03:07.125Z,9.80
2023-05-22T07:05:43.398Z,10.37
2023-05-22T07:08:10.926Z,9.50
2023-05-22T07:10:38.971Z,9.47
2023-05-22T07:13:07.093Z,9.93
2023-05-22T07:15:35.500Z,9.87
2023-05-22T07:18:04.882Z,9.70
2023-05-22T07:20:32.775Z,9.47
2023-05-22T07:23:10.146Z,9.43
2023-05-22T07:25:39.800Z,9.57
2023-05-22T07:28:09.461Z,9.63
2023-05-22T07:30:45.866Z,10.25
2023-05-22T07:33:14.088Z,10.80
2023-05-22T07:35:41.500Z,9.90
2023-05-22T07:38:09.197Z,9.70
2023-05-22T07:40:39.079Z,9.98
2023-05-22T07:43:06.674Z,9.77
2023-05-22T07:45:34.293Z,9.68
2023-05-22T07:48:06.420Z,9.77
2023-05-22T07:50:36.448Z,10.85
2023-05-22T07:53:06.381Z,10.32
2023-05-22T07:55:37.876Z,10.48
2023-05-22T07:58:05.482Z,10.52
2023-05-22T08:00:37.736Z,10.38
2023-05-22T08:03:05.401Z,9.77
2023-05-22T08:05:32.980Z,9.95
2023-05-22T08:08:00.876Z,10.68
2023-05-22T08:10:37.261Z,9.95
2023-05-22T08:13:15.804Z,10.50
2023-05-22T08:15:44.223Z,9.80
2023-05-22T08:18:11.809Z,11.25
2023-05-22T08:20:40.445Z,9.75
2023-05-22T08:23:08.595Z,9.88
2023-05-22T08:25:36.095Z,10.27
2023-05-22T08:28:04.590Z,10.02
2023-05-22T08:30:32.334Z,9.00
2023-05-22T08:32:59.910Z,9.93
2023-05-22T08:35:32.968Z,9.98
2023-05-22T08:38:03.280Z,9.73
2023-05-22T08:40:37.742Z,9.85
2023-05-22T08:43:08.619Z,9.85
2023-05-22T08:45:37.653Z,9.52
2023-05-22T08:48:06.591Z,9.73
2023-05-22T08:50:40.445Z,9.18
2023-05-22T08:53:11.296Z,9.82
2023-05-22T08:55:39.765Z,9.88
2023-05-22T08:58:09.096Z,9.32
2023-05-22T09:00:38.038Z,9.98
2023-05-22T09:03:07.147Z,9.55
2023-05-22T09:05:36.261Z,9.10
2023-05-22T09:08:15.905Z,9.50
2023-05-22T09:10:47.722Z,9.68
2023-05-22T09:13:26.356Z,9.20
2023-05-22T09:15:58.271Z,10.02
2023-05-22T09:18:29.817Z,9.52
2023-05-22T09:20:58.997Z,8.45
2023-05-22T09:23:28.397Z,9.18
2023-05-22T09:25:58.133Z,8.82
2023-05-22T09:28:26.549Z,8.75
2023-05-22T09:30:55.446Z,8.90
2023-05-22T09:33:23.950Z,9.00
2023-05-22T09:35:55.332Z,8.15
2023-05-22T09:38:26.699Z,8.07
2023-05-22T09:40:54.852Z,8.98
2023-05-22T09:43:25.492Z,8.45
2023-05-22T09:46:00.216Z,8.57
2023-05-22T09:48:27.633Z,8.57
2023-05-22T09:50:56.067Z,8.27
2023-05-22T09:53:31.121Z,8.95
2023-05-22T09:56:00.043Z,8.63
2023-05-22T09:58:32.206Z,9.07
2023-05-22T10:01:01.233Z,8.40
2023-05-22T10:03:31.056Z,9.00
2023-05-22T10:06:00.550Z,8.30
2023-05-22T10:08:29.285Z,8.32
2023-05-22T10:10:58.570Z,9.10
2023-05-22T10:13:27.702Z,8.70
2023-05-22T10:15:55.954Z,8.40
2023-05-22T10:18:24.337Z,9.13
2023-05-22T10:20:52.523Z,8.85
2023-05-22T10:23:22.427Z,8.80
2023-05-22T10:25:51.966Z,9.82
2023-05-22T10:28:27.492Z,9.90
2023-05-22T10:31:01.915Z,9.48
2023-05-22T10:34:11.326Z,9.82
2023-05-22T10:36:48.577Z,9.57
2023-05-22T10:39:43.729Z,9.60
2023-05-22T10:42:14.828Z,9.38
2023-05-22T10:44:43.479Z,10.35
2023-05-22T10:47:13.363Z,10.13
2023-05-22T10:49:45.386Z,10.85
2023-05-22T10:52:15.010Z,10.60
2023-05-22T10:54:46.344Z,9.90
2023-05-22T10:57:18.626Z,11.05
2023-05-22T10:59:50.080Z,10.75
2023-05-22T11:02:22.456Z,10.00
2023-05-22T11:04:50.890Z,10.95
2023-05-22T11:07:18.450Z,11.63
2023-05-22T11:09:47.589Z,9.63
2023-05-22T11:12:17.090Z,10.15
2023-05-22T11:15:00.754Z,11.93
2023-05-22T11:17:32.804Z,10.93
2023-05-22T11:20:10.896Z,11.50
2023-05-22T11:22:41.130Z,11.77
2023-05-22T11:25:16.655Z,11.43
2023-05-22T11:27:45.410Z,11.73
2023-05-22T11:30:14.020Z,11.57
2023-05-22T11:32:47.871Z,10.90
2023-05-22T11:35:19.642Z,11.50
2023-05-22T11:37:51.845Z,11.95
2023-05-22T11:40:21.825Z,11.02
2023-05-22T11:42:52.685Z,11.90
2023-05-22T11:45:23.284Z,11.15
2023-05-22T11:47:50.889Z,10.85
2023-05-22T11:50:29.228Z,11.73
2023-05-22T11:53:02.854Z,10.75
2023-05-22T11:55:30.378Z,9.75
2023-05-22T11:57:58.323Z,10.95
2023-05-22T12:00:26.934Z,10.57
2023-05-22T12:02:55.027Z,10.98
2023-05-22T12:05:22.491Z,11.13
2023-05-22T12:07:50.349Z,10.52
2023-05-22T12:10:17.888Z,11.05
2023-05-22T12:12:45.643Z,10.93
2023-05-22T12:15:13.480Z,11.50
2023-05-22T12:17:41.343Z,10.70
2023-05-22T12:20:13.741Z,11.57
2023-05-22T12:22:45.926Z,10.73
2023-05-22T12:25:17.592Z,10.57
2023-05-22T12:27:46.567Z,11.23
2023-05-22T12:30:15.258Z,11.00
2023-05-22T12:32:48.879Z,9.85
2023-05-22T12:35:17.722Z,10.50
2023-05-22T12:37:50.075Z,10.20
2023-05-22T12:40:17.818Z,10.80
2023-05-22T12:42:45.798Z,11.27
2023-05-22T12:45:14.152Z,10.65
2023-05-22T12:47:42.820Z,10.73
2023-05-22T12:50:10.879Z,11.63
2023-05-22T12:52:39.230Z,9.45
2023-05-22T12:55:07.351Z,9.43
2023-05-22T12:57:34.742Z,10.35
2023-05-22T13:00:04.440Z,10.18
2023-05-22T13:02:33.045Z,10.02
2023-05-22T13:05:00.566Z,9.90
2023-05-22T13:07:27.982Z,11.07
2023-05-22T13:09:55.367Z,9.48
2023-05-22T13:12:23.818Z,10.23
2023-05-22T13:14:52.042Z,10.15
2023-05-22T13:17:19.398Z,9.48
2023-05-22T13:19:46.773Z,10.00
2023-05-22T13:22:14.793Z,9.40
2023-05-22T13:24:42.720Z,10.93
2023-05-22T13:27:10.175Z,10.07
2023-05-22T13:29:37.575Z,10.07
2023-05-22T13:32:05.523Z,9.18
2023-05-22T13:34:33.066Z,9.52
2023-05-22T13:37:01.277Z,9.15
2023-05-22T13:39:28.947Z,9.55
2023-05-22T13:41:56.499Z,10.32
2023-05-22T13:44:24.050Z,9.30
2023-05-22T13:46:51.581Z,9.18
2023-05-22T13:49:19.139Z,10.23
2023-05-22T13:51:46.963Z,9.82
2023-05-22T13:54:14.513Z,9.25
2023-05-22T13:56:42.418Z,9.50
2023-05-22T13:59:09.942Z,10.65
2023-05-22T14:01:37.439Z,9.55
2023-05-22T14:04:05.515Z,10.00
2023-05-22T14:06:33.533Z,8.70
2023-05-22T14:09:02.510Z,9.95
2023-05-22T14:11:30.090Z,10.18
2023-05-22T14:13:57.536Z,9.93
2023-05-22T14:16:25.535Z,11.30
2023-05-22T14:18:53.397Z,10.55
2023-05-22T14:21:21.031Z,10.25
2023-05-22T14:23:48.683Z,9.82
2023-05-22T14:26:16.362Z,9.75
2023-05-22T14:28:45.365Z,8.65
2023-05-22T14:31:12.715Z,9.15
2023-05-22T14:33:40.536Z,9.13
2023-05-22T14:36:08.424Z,9.70
2023-05-22T14:38:36.808Z,9.25
2023-05-22T14:41:04.341Z,10.38
2023-05-22T14:43:31.716Z,9.50
2023-05-22T14:45:59.830Z,10.15
2023-05-22T14:48:29.454Z,10.63
2023-05-22T14:50:56.965Z,10.30
2023-05-22T14:53:24.723Z,10.60
2023-05-22T14:55:52.161Z,10.02
2023-05-22T14:58:20.178Z,9.70
2023-05-22T15:00:47.573Z,11.25
2023-05-22T15:03:15.144Z,10.88
2023-05-22T15:05:43.408Z,10.63
2023-05-22T15:08:10.891Z,11.10
2023-05-22T15:10:38.372Z,11.13
2023-05-22T15:13:05.959Z,11.85
2023-05-22T15:15:33.447Z,12.27
2023-05-22T15:18:03.316Z,13.20
2023-05-22T15:20:31.709Z,13.10
2023-05-22T15:22:59.806Z,12.60
2023-05-22T15:25:27.506Z,12.50
2023-05-22T15:27:55.376Z,11.48
2023-05-22T15:30:23.478Z,12.82
2023-05-22T15:32:50.966Z,11.27
2023-05-22T15:35:18.589Z,10.77
2023-05-22T15:37:46.680Z,11.20
2023-05-22T15:40:18.255Z,10.10
2023-05-22T15:42:45.718Z,11.30
2023-05-22T15:45:14.275Z,12.30
2023-05-22T15:47:42.748Z,11.65
2023-05-22T15:50:14.318Z,10.30
2023-05-22T15:52:42.024Z,10.90
2023-05-22T15:55:09.477Z,10.10
2023-05-22T15:57:38.136Z,13.05
2023-05-22T16:00:06.473Z,11.68
2023-05-22T16:02:34.149Z,10.68
2023-05-22T16:05:02.452Z,10.88
2023-05-22T16:07:29.795Z,10.77
2023-05-22T16:09:57.521Z,11.20
2023-05-22T16:12:26.960Z,9.63
2023-05-22T16:15:00.058Z,9.90
2023-05-22T16:17:29.822Z,8.63
2023-05-22T16:19:58.393Z,9.90
2023-05-22T16:22:36.360Z,9.32
2023-05-22T16:25:16.585Z,9.90
2023-05-22T16:27:44.255Z,10.40
2023-05-22T16:30:12.226Z,10.43
2023-05-22T16:32:55.770Z,9.80
2023-05-22T16:35:32.278Z,9.77
2023-05-22T16:38:07.081Z,9.45
2023-05-22T16:40:34.498Z,9.80
2023-05-22T16:43:01.918Z,11.93
2023-05-22T16:45:29.587Z,15.90
2023-05-22T16:47:57.591Z,16.13
2023-05-22T16:50:28.304Z,15.60
2023-05-22T16:52:55.938Z,18.20
2023-05-22T16:55:23.335Z,18.67
2023-05-22T16:57:51.224Z,20.95
2023-05-22T17:00:19.505Z,20.65
2023-05-22T17:02:47.474Z,21.02
2023-05-22T17:05:14.966Z,19.50
2023-05-22T17:07:42.579Z,11.98
2023-05-22T17:10:10.576Z,8.10
2023-05-22T17:12:38.406Z,6.28
2023-05-22T17:15:06.594Z,5.80
2023-05-22T17:17:34.282Z,5.93
2023-05-22T17:20:02.377Z,6.20
2023-05-22T17:22:29.774Z,5.90
2023-05-22T17:24:57.364Z,6.30
2023-05-22T17:27:35.621Z,15.43
2023-05-22T17:30:04.837Z,11.73
2023-05-22T17:32:33.237Z,10.90
2023-05-22T17:35:01.950Z,11.27
2023-05-22T17:37:29.699Z,12.07
2023-05-22T17:39:57.144Z,11.97
2023-05-22T17:42:24.695Z,13.50
2023-05-22T17:44:52.064Z,16.87
2023-05-22T17:47:19.432Z,16.93
2023-05-22T17:49:47.137Z,12.30
2023-05-22T17:52:15.044Z,12.37
2023-05-22T17:54:42.457Z,12.10
2023-05-22T17:57:09.874Z,12.23
2023-05-22T17:59:39.837Z,11.27
2023-05-22T18:02:11.421Z,11.03
2023-05-22T18:04:38.844Z,10.93
2023-05-22T18:07:06.784Z,10.07
2023-05-22T18:09:35.424Z,9.23
2023-05-22T18:12:03.662Z,8.37
2023-05-22T18:14:31.536Z,9.00
2023-05-22T18:16:59.068Z,8.87
2023-05-22T18:19:26.619Z,8.80
2023-05-22T18:21:55.522Z,8.83
2023-05-22T18:24:25.963Z,9.47
2023-05-22T18:26:55.950Z,9.07
2023-05-22T18:29:23.410Z,9.47
2023-05-22T18:31:50.862Z,9.37
2023-05-22T18:34:18.499Z,9.13
2023-05-22T18:36:46.005Z,9.53
2023-05-22T18:39:14.908Z,9.57
2023-05-22T18:41:42.320Z,9.13
2023-05-22T18:44:09.980Z,9.70
2023-05-22T18:46:37.744Z,9.30
2023-05-22T18:49:05.283Z,9.53
2023-05-22T18:51:33.375Z,9.60
2023-05-22T18:54:00.894Z,9.07
2023-05-22T18:56:28.425Z,9.80
2023-05-22T18:58:56.269Z,10.43
2023-05-22T19:01:24.715Z,11.30
2023-05-22T19:03:52.088Z,10.77
2023-05-22T19:06:19.947Z,11.43
2023-05-22T19:08:47.369Z,11.00
2023-05-22T19:11:15.476Z,11.50
2023-05-22T19:13:44.205Z,11.37
2023-05-22T19:16:13.774Z,12.20
2023-05-22T19:18:41.482Z,11.83
2023-05-22T19:21:09.553Z,12.00
2023-05-22T19:23:37.420Z,12.77
2023-05-22T19:26:05.804Z,12.60
2023-05-22T19:28:33.352Z,11.87
2023-05-22T19:31:03.245Z,13.13
2023-05-22T19:33:32.382Z,13.80
2023-05-22T19:36:02.179Z,13.43
2023-05-22T19:38:31.034Z,13.60
2023-05-22T19:40:58.649Z,14.30
2023-05-22T19:43:26.276Z,13.83
2023-05-22T19:45:54.184Z,13.57
2023-05-22T19:48:21.661Z,12.70
2023-05-22T19:50:49.084Z,13.70
2023-05-22T19:53:16.573Z,13.77
2023-05-22T19:55:44.430Z,13.53
2023-05-22T19:58:11.770Z,12.83
2023-05-22T20:00:41.653Z,13.17
2023-05-22T20:03:09.670Z,13.73
2023-05-22T20:05:37.901Z,13.00
2023-05-22T20:08:05.841Z,13.13
2023-05-22T20:10:36.228Z,14.37
2023-05-22T20:13:05.167Z,13.73
2023-05-22T20:15:32.921Z,13.23
2023-05-22T20:18:02.565Z,12.90
2023-05-22T20:20:31.066Z,13.60
2023-05-22T20:22:59.462Z,13.30
2023-05-22T20:25:26.947Z,13.53
2023-05-22T20:27:54.330Z,12.77
2023-05-22T20:30:24.606Z,13.23
2023-05-22T20:32:52.039Z,13.07
2023-05-22T20:35:20.206Z,14.23
2023-05-22T20:37:48.025Z,15.63
2023-05-22T20:40:15.952Z,15.17
2023-05-22T20:42:43.747Z,16.63
2023-05-22T20:45:14.408Z,18.17
2023-05-22T20:47:43.897Z,17.50
2023-05-22T20:50:11.578Z,16.70
2023-05-22T20:52:39.287Z,16.73
2023-05-22T20:55:07.390Z,17.13
2023-05-22T20:57:35.137Z,15.77
2023-05-22T21:00:05.125Z,16.60
2023-05-22T21:02:33.144Z,16.03
2023-05-22T21:05:00.561Z,15.77
2023-05-22T21:07:28.301Z,16.93
2023-05-22T21:09:55.928Z,15.37
2023-05-22T21:12:23.262Z,16.67
2023-05-22T21:14:50.751Z,16.70
2023-05-22T21:17:18.489Z,18.20
2023-05-22T21:19:46.302Z,22.87
2023-05-22T21:22:13.724Z,25.37
2023-05-22T21:24:41.015Z,29.57
2023-05-22T21:27:08.303Z,28.97
2023-05-22T21:29:35.721Z,31.00
2023-05-22T21:32:03.093Z,33.33
2023-05-22T21:34:31.003Z,34.17
2023-05-22T21:36:58.459Z,34.90
2023-05-22T21:39:25.860Z,34.80
2023-05-22T21:41:53.226Z,34.63
2023-05-22T21:44:20.557Z,36.23
2023-05-22T21:46:47.969Z,36.27
2023-05-22T21:49:15.597Z,34.63
2023-05-22T21:51:42.947Z,35.70
2023-05-22T21:54:10.510Z,36.60
2023-05-22T21:56:38.535Z,35.47
2023-05-22T21:59:06.061Z,36.80
2023-05-22T22:01:33.521Z,34.90
2023-05-22T22:04:00.930Z,37.60
2023-05-22T22:06:28.378Z,37.17
2023-05-22T22:08:58.623Z,37.90
2023-05-22T22:11:26.537Z,34.67
2023-05-22T22:13:54.513Z,37.17
2023-05-22T22:16:22.236Z,37.07
2023-05-22T22:18:50.424Z,44.20
2023-05-22T22:21:17.865Z,38.07
2023-05-22T22:23:45.727Z,37.13
2023-05-22T22:26:13.672Z,38.30
2023-05-22T22:28:41.031Z,36.10
2023-05-22T22:31:08.332Z,38.30
2023-05-22T22:33:35.781Z,38.60
2023-05-22T22:36:03.347Z,38.13
2023-05-22T22:38:35.035Z,37.53
2023-05-22T22:41:04.733Z,36.70
2023-05-22T22:43:32.159Z,37.27
2023-05-22T22:46:00.050Z,38.43
2023-05-22T22:48:27.499Z,30.87
2023-05-22T22:50:55.075Z,30.93
2023-05-22T22:53:22.564Z,31.23
2023-05-22T22:55:55.858Z,34.30
2023-05-22T22:58:24.140Z,34.10
2023-05-22T23:00:51.572Z,33.87
2023-05-22T23:03:19.365Z,35.57
2023-05-22T23:05:46.842Z,35.40
2023-05-22T23:08:14.206Z,33.30
2023-05-22T23:10:41.510Z,34.43
2023-05-22T23:13:09.028Z,34.67
2023-05-22T23:15:36.912Z,30.80
2023-05-22T23:18:04.526Z,31.37
2023-05-22T23:20:31.947Z,29.67
2023-05-22T23:22:59.356Z,29.73
2023-05-22T23:25:26.974Z,25.87
2023-05-22T23:27:54.518Z,24.77
2023-05-22T23:30:21.896Z,24.33
2023-05-22T23:32:49.939Z,24.90
2023-05-22T23:35:17.390Z,24.37
2023-05-22T23:37:44.830Z,24.87
2023-05-22T23:40:12.639Z,25.80
2023-05-22T23:42:40.069Z,25.40
2023-05-22T23:45:07.900Z,23.70
2023-05-22T23:47:35.416Z,28.07
2023-05-22T23:50:02.743Z,25.53
2023-05-22T23:52:30.229Z,29.13
2023-05-22T23:54:58.285Z,32.13
2023-05-22T23:57:25.640Z,31.17
2023-05-22T23:59:52.987Z,31.93
